createdAt,value
2018-07-11T00:01:22.284Z,5.90
2018-07-11T00:03:54.245Z,5.60
2018-07-11T00:06:26.124Z,5.63
2018-07-11T00:08:56.703Z,5.90
2018-07-11T00:11:27.368Z,5.93
2018-07-11T00:13:58.093Z,6.30
2018-07-11T00:16:28.963Z,6.57
2018-07-11T00:18:59.567Z,6.40
2018-07-11T00:21:30.069Z,8.30
2018-07-11T00:24:01.131Z,7.00
2018-07-11T00:26:31.779Z,8.10
2018-07-11T00:29:02.415Z,8.20
2018-07-11T00:31:33.144Z,8.77
2018-07-11T00:34:03.864Z,8.60
2018-07-11T00:36:34.617Z,9.23
2018-07-11T00:39:06.056Z,9.23
2018-07-11T00:41:36.783Z,9.90
2018-07-11T00:44:06.937Z,9.13
2018-07-11T00:46:37.802Z,8.97
2018-07-11T00:49:08.707Z,9.97
2018-07-11T00:51:39.365Z,7.20
2018-07-11T00:54:10.165Z,9.80
2018-07-11T00:56:41.818Z,8.50
2018-07-11T00:59:27.101Z,8.13
2018-07-11T01:02:04.237Z,8.10
2018-07-11T01:04:35.110Z,9.70
2018-07-11T01:07:07.288Z,10.57
2018-07-11T01:09:46.454Z,9.30
2018-07-11T01:12:17.301Z,9.40
2018-07-11T01:14:48.730Z,11.00
2018-07-11T01:17:24.686Z,9.83
2018-07-11T01:19:55.322Z,10.47
2018-07-11T01:22:25.898Z,8.43
2018-07-11T01:24:56.419Z,9.90
2018-07-11T01:27:27.131Z,9.90
2018-07-11T01:29:57.697Z,9.50
2018-07-11T01:32:28.414Z,10.77
2018-07-11T01:34:58.828Z,10.43
2018-07-11T01:37:29.388Z,10.20
2018-07-11T01:39:59.920Z,11.40
2018-07-11T01:42:30.552Z,9.30
2018-07-11T01:45:01.177Z,10.43
2018-07-11T01:47:31.918Z,9.77
2018-07-11T01:50:02.549Z,10.23
2018-07-11T01:52:50.044Z,10.20
2018-07-11T01:55:20.748Z,10.20
2018-07-11T01:57:53.471Z,10.80
2018-07-11T02:00:24.099Z,10.60
2018-07-11T02:02:54.773Z,10.60
2018-07-11T02:05:26.578Z,9.57
2018-07-11T02:07:57.290Z,10.23
2018-07-11T02:10:28.405Z,10.47
2018-07-11T02:13:00.104Z,11.60
2018-07-11T02:15:30.954Z,9.37
2018-07-11T02:18:03.421Z,10.00
2018-07-11T02:20:34.016Z,10.27
2018-07-11T02:23:04.731Z,9.50
2018-07-11T02:25:35.342Z,9.30
2018-07-11T02:28:07.074Z,9.77
2018-07-11T02:30:37.955Z,11.07
2018-07-11T02:33:08.888Z,11.23
2018-07-11T02:35:39.618Z,11.10
2018-07-11T02:38:10.240Z,10.80
2018-07-11T02:40:40.797Z,10.13
2018-07-11T02:43:12.183Z,9.93
2018-07-11T02:45:42.837Z,9.50
2018-07-11T02:48:13.525Z,9.13
2018-07-11T02:50:44.240Z,9.57
2018-07-11T02:53:21.828Z,8.07
2018-07-11T02:55:53.341Z,9.47
2018-07-11T02:58:24.026Z,10.03
2018-07-11T03:00:54.751Z,10.03
2018-07-11T03:03:25.400Z,9.93
2018-07-11T03:05:56.242Z,8.93
2018-07-11T03:08:35.857Z,9.00
2018-07-11T03:11:07.153Z,9.27
2018-07-11T03:13:37.925Z,9.37
2018-07-11T03:16:08.662Z,8.67
2018-07-11T03:18:39.598Z,8.53
2018-07-11T03:21:10.169Z,8.43
2018-07-11T03:23:41.391Z,7.93
2018-07-11T03:26:12.016Z,8.97
2018-07-11T03:28:42.621Z,8.90
2018-07-11T03:31:13.149Z,8.63
2018-07-11T03:33:43.884Z,9.30
2018-07-11T03:36:15.167Z,9.77
2018-07-11T03:38:45.742Z,9.23
2018-07-11T03:41:16.340Z,8.53
2018-07-11T03:43:47.053Z,9.17
2018-07-11T03:46:17.686Z,9.20
2018-07-11T03:48:48.335Z,8.47
2018-07-11T03:51:18.865Z,9.70
2018-07-11T03:53:49.771Z,8.77
2018-07-11T03:56:20.210Z,9.43
2018-07-11T03:58:51.194Z,9.23
2018-07-11T04:01:21.818Z,9.63
2018-07-11T04:03:52.451Z,9.80
2018-07-11T04:06:22.932Z,9.03
2018-07-11T04:08:53.659Z,10.30
2018-07-11T04:11:24.147Z,10.07
2018-07-11T04:13:54.743Z,8.47
2018-07-11T04:16:25.373Z,9.10
2018-07-11T04:18:56.812Z,11.10
2018-07-11T04:21:27.505Z,10.30
2018-07-11T04:23:58.294Z,9.73
2018-07-11T04:26:29.055Z,9.00
2018-07-11T04:28:59.783Z,8.60
2018-07-11T04:31:30.412Z,9.30
2018-07-11T04:34:01.079Z,9.80
2018-07-11T04:36:31.626Z,9.77
2018-07-11T04:39:02.281Z,8.30
2018-07-11T04:41:32.872Z,8.50
2018-07-11T04:44:03.400Z,8.00
2018-07-11T04:46:34.223Z,8.90
2018-07-11T04:49:04.828Z,8.60
2018-07-11T04:51:35.747Z,7.33
2018-07-11T04:54:06.332Z,7.80
2018-07-11T04:56:37.046Z,8.80
2018-07-11T04:59:07.650Z,7.77
2018-07-11T05:01:38.254Z,8.03
2018-07-11T05:04:08.927Z,7.50
2018-07-11T05:06:39.539Z,8.63
2018-07-11T05:09:11.203Z,8.50
2018-07-11T05:11:41.844Z,6.97
2018-07-11T05:14:12.768Z,7.10
2018-07-11T05:16:43.829Z,8.53
2018-07-11T05:19:14.338Z,7.30
2018-07-11T05:21:44.978Z,8.40
2018-07-11T05:24:15.918Z,8.23
2018-07-11T05:26:46.492Z,7.80
2018-07-11T05:29:17.288Z,6.60
2018-07-11T05:31:48.004Z,8.00
2018-07-11T05:34:18.643Z,8.90
2018-07-11T05:36:49.282Z,7.43
2018-07-11T05:39:20.040Z,7.13
2018-07-11T05:41:50.846Z,6.20
2018-07-11T05:44:20.985Z,6.23
2018-07-11T05:46:56.213Z,7.00
2018-07-11T05:49:28.802Z,6.40
2018-07-11T05:51:59.775Z,5.87
2018-07-11T05:54:30.678Z,6.13
2018-07-11T05:57:01.468Z,5.80
2018-07-11T05:59:34.916Z,5.20
2018-07-11T06:02:05.552Z,4.80
2018-07-11T06:04:36.321Z,4.33
2018-07-11T06:07:07.247Z,4.80
2018-07-11T06:09:37.848Z,4.60
2018-07-11T06:12:08.666Z,3.87
2018-07-11T06:14:39.381Z,3.60
2018-07-11T06:17:10.123Z,3.20
2018-07-11T06:19:40.648Z,2.90
2018-07-11T06:22:11.285Z,3.50
2018-07-11T06:24:41.886Z,2.83
2018-07-11T06:27:12.469Z,3.97
2018-07-11T06:29:43.156Z,2.70
2018-07-11T06:32:13.931Z,2.63
2018-07-11T06:34:44.650Z,3.00
2018-07-11T06:37:15.263Z,2.83
2018-07-11T06:39:45.978Z,2.53
2018-07-11T06:42:16.535Z,2.63
2018-07-11T06:44:47.431Z,3.10
2018-07-11T06:47:18.100Z,2.20
2018-07-11T06:49:48.572Z,2.73
2018-07-11T06:52:19.065Z,2.90
2018-07-11T06:54:49.680Z,2.90
2018-07-11T06:57:20.485Z,3.17
2018-07-11T06:59:57.719Z,3.00
2018-07-11T07:02:28.264Z,2.70
2018-07-11T07:04:59.438Z,2.30
2018-07-11T07:07:29.918Z,2.27
2018-07-11T07:10:00.612Z,2.70
2018-07-11T07:12:31.072Z,3.37
2018-07-11T07:15:01.654Z,2.50
2018-07-11T07:17:32.200Z,2.67
2018-07-11T07:20:02.794Z,3.23
2018-07-11T07:22:33.910Z,3.90
2018-07-11T07:25:04.420Z,3.77
2018-07-11T07:27:34.869Z,3.70
2018-07-11T07:30:05.670Z,4.27
2018-07-11T07:32:36.144Z,3.13
2018-07-11T07:35:06.748Z,3.80
2018-07-11T07:37:37.329Z,3.57
2018-07-11T07:40:08.225Z,4.40
2018-07-11T07:42:38.761Z,3.80
2018-07-11T07:45:09.474Z,4.30
2018-07-11T07:47:46.974Z,3.57
2018-07-11T07:50:18.130Z,4.40
2018-07-11T07:52:48.845Z,3.37
2018-07-11T07:55:19.545Z,3.70
2018-07-11T07:57:50.171Z,3.20
2018-07-11T08:00:21.051Z,4.27
2018-07-11T08:02:51.896Z,4.17
2018-07-11T08:05:22.496Z,5.10
2018-07-11T08:07:53.346Z,5.53
2018-07-11T08:10:24.030Z,4.13
2018-07-11T08:12:54.616Z,3.63
2018-07-11T08:15:25.189Z,3.70
2018-07-11T08:17:55.974Z,4.30
2018-07-11T08:20:26.684Z,3.37
2018-07-11T08:23:24.123Z,4.00
2018-07-11T08:26:11.586Z,3.47
2018-07-11T08:32:03.949Z,3.20
2018-07-11T08:34:58.540Z,3.57
2018-07-11T08:37:58.114Z,4.03
2018-07-11T08:41:52.295Z,4.23
2018-07-11T08:46:46.497Z,4.10
2018-07-11T08:52:25.287Z,4.40
2018-07-11T08:55:20.026Z,3.90
2018-07-11T08:58:15.240Z,4.07
2018-07-11T09:02:03.227Z,3.47
2018-07-11T09:05:02.705Z,3.70
2018-07-11T09:10:11.908Z,2.97
2018-07-11T09:15:03.934Z,2.40
2018-07-11T09:19:11.366Z,2.10
2018-07-11T09:24:38.596Z,2.13
2018-07-11T09:27:09.665Z,2.40
2018-07-11T09:29:41.264Z,2.60
2018-07-11T09:32:12.728Z,3.30
2018-07-11T09:34:44.091Z,2.93
2018-07-11T09:37:14.643Z,2.80
2018-07-11T09:39:45.408Z,2.93
2018-07-11T09:42:15.656Z,3.70
2018-07-11T09:44:46.265Z,2.93
2018-07-11T09:47:22.722Z,2.40
2018-07-11T09:49:53.223Z,2.57
2018-07-11T09:52:23.815Z,2.23
2018-07-11T09:54:54.279Z,1.97
2018-07-11T09:57:26.331Z,1.77
2018-07-11T09:59:57.445Z,2.10
2018-07-11T10:02:28.249Z,2.50
2018-07-11T10:04:59.056Z,2.73
2018-07-11T10:07:29.760Z,1.90
2018-07-11T10:10:00.242Z,2.03
2018-07-11T10:12:30.901Z,1.97
2018-07-11T10:15:01.173Z,2.00
2018-07-11T10:17:32.286Z,1.63
2018-07-11T10:20:02.814Z,1.80
2018-07-11T10:22:33.524Z,2.87
2018-07-11T10:25:04.284Z,1.83
2018-07-11T10:27:34.789Z,1.70
2018-07-11T10:30:05.381Z,2.70
2018-07-11T10:32:35.984Z,2.23
2018-07-11T10:35:07.201Z,1.90
2018-07-11T10:37:37.521Z,2.07
2018-07-11T10:40:08.055Z,2.23
2018-07-11T10:42:38.805Z,2.10
2018-07-11T10:45:09.240Z,2.80
2018-07-11T10:47:39.878Z,2.67
2018-07-11T10:50:10.389Z,1.80
2018-07-11T10:52:41.211Z,1.80
2018-07-11T10:55:12.398Z,1.67
2018-07-11T10:57:42.996Z,1.83
2018-07-11T11:00:35.964Z,2.63
2018-07-11T11:02:44.534Z,2.10
2018-07-11T11:05:14.961Z,2.00
2018-07-11T11:07:45.749Z,2.03
2018-07-11T11:10:16.440Z,1.80
2018-07-11T11:12:47.315Z,2.07
2018-07-11T11:15:18.089Z,2.00
2018-07-11T11:17:48.781Z,1.43
2018-07-11T11:20:19.299Z,2.83
2018-07-11T11:22:50.016Z,1.90
2018-07-11T11:25:20.368Z,1.93
2018-07-11T11:27:50.687Z,1.80
2018-07-11T11:30:21.254Z,2.00
2018-07-11T11:32:52.035Z,1.60
2018-07-11T11:35:22.356Z,1.60
2018-07-11T11:37:53.047Z,2.37
2018-07-11T11:40:23.800Z,1.63
2018-07-11T11:42:54.710Z,1.83
2018-07-11T11:45:25.582Z,1.80
2018-07-11T11:47:59.255Z,1.90
2018-07-11T11:50:30.411Z,1.90
2018-07-11T11:53:01.840Z,1.87
2018-07-11T11:55:36.947Z,2.03
2018-07-11T11:58:07.632Z,2.93
2018-07-11T12:00:38.416Z,3.10
2018-07-11T12:03:09.182Z,2.77
2018-07-11T12:05:42.685Z,2.33
2018-07-11T12:08:13.339Z,2.83
2018-07-11T12:10:43.990Z,2.37
2018-07-11T12:13:14.820Z,2.47
2018-07-11T12:15:45.508Z,2.40
2018-07-11T12:18:16.184Z,3.07
2018-07-11T12:20:46.771Z,2.43
2018-07-11T12:23:17.541Z,3.10
2018-07-11T12:26:00.176Z,2.87
2018-07-11T12:28:31.530Z,3.43
2018-07-11T12:31:02.482Z,3.30
2018-07-11T12:33:33.292Z,3.27
2018-07-11T12:36:04.168Z,3.13
2018-07-11T12:38:35.259Z,3.70
2018-07-11T12:41:06.097Z,3.17
2018-07-11T12:43:36.962Z,2.67
2018-07-11T12:46:07.677Z,2.53
2018-07-11T12:48:43.479Z,2.27
2018-07-11T12:51:15.913Z,2.13
2018-07-11T12:53:46.544Z,2.53
2018-07-11T12:56:17.374Z,2.40
2018-07-11T12:58:47.614Z,2.60
2018-07-11T13:01:18.359Z,2.10
2018-07-11T13:03:49.113Z,3.00
2018-07-11T13:06:19.733Z,2.10
2018-07-11T13:08:50.352Z,2.90
2018-07-11T13:11:21.910Z,2.50
2018-07-11T13:13:53.040Z,2.47
2018-07-11T13:16:23.553Z,2.80
2018-07-11T13:18:54.214Z,2.40
2018-07-11T13:21:25.394Z,2.93
2018-07-11T13:23:56.112Z,2.77
2018-07-11T13:26:29.852Z,3.00
2018-07-11T13:29:00.496Z,2.47
2018-07-11T13:31:31.282Z,3.30
2018-07-11T13:34:01.977Z,3.13
2018-07-11T13:36:32.541Z,3.03
2018-07-11T13:39:05.014Z,3.43
2018-07-11T13:41:35.650Z,4.10
2018-07-11T13:44:06.955Z,3.00
2018-07-11T13:46:37.576Z,2.80
2018-07-11T13:49:08.759Z,3.13
2018-07-11T13:51:39.494Z,2.97
2018-07-11T13:54:10.549Z,2.63
2018-07-11T13:56:41.356Z,2.90
2018-07-11T13:59:12.192Z,2.80
2018-07-11T14:01:43.026Z,3.00
2018-07-11T14:04:13.666Z,3.07
2018-07-11T14:06:44.523Z,2.80
2018-07-11T14:09:15.207Z,2.73
2018-07-11T14:11:45.981Z,3.07
2018-07-11T14:14:16.709Z,3.20
2018-07-11T14:16:47.282Z,2.93
2018-07-11T14:19:17.816Z,2.90
2018-07-11T14:21:48.495Z,3.70
2018-07-11T14:24:18.748Z,3.63
2018-07-11T14:26:49.945Z,3.57
2018-07-11T14:29:23.302Z,3.27
2018-07-11T14:31:54.355Z,3.83
2018-07-11T14:34:25.044Z,3.10
2018-07-11T14:36:55.765Z,3.37
2018-07-11T14:39:26.007Z,3.40
2018-07-11T14:41:56.728Z,3.30
2018-07-11T14:44:27.360Z,4.20
2018-07-11T14:46:58.090Z,3.73
2018-07-11T14:49:28.838Z,3.60
2018-07-11T14:51:59.513Z,3.47
2018-07-11T14:54:30.095Z,3.80
2018-07-11T14:57:01.240Z,3.27
2018-07-11T14:59:31.896Z,3.83
2018-07-11T15:02:08.917Z,4.87
2018-07-11T15:04:39.908Z,3.50
2018-07-11T15:07:10.542Z,3.60
2018-07-11T15:09:41.290Z,3.90
2018-07-11T15:12:11.891Z,3.93
2018-07-11T15:14:42.575Z,3.73
2018-07-11T15:17:13.379Z,4.03
2018-07-11T15:19:44.110Z,4.03
2018-07-11T15:22:14.914Z,3.83
2018-07-11T15:24:45.180Z,4.03
2018-07-11T15:27:16.236Z,4.77
2018-07-11T15:29:47.053Z,3.90
2018-07-11T15:32:17.820Z,4.40
2018-07-11T15:34:48.611Z,4.07
2018-07-11T15:37:19.676Z,4.00
2018-07-11T15:39:51.263Z,4.10
2018-07-11T15:42:22.579Z,4.23
2018-07-11T15:44:53.896Z,3.60
2018-07-11T15:47:25.304Z,3.67
2018-07-11T15:49:56.270Z,3.90
2018-07-11T15:52:27.057Z,3.70
2018-07-11T15:54:59.657Z,3.87
2018-07-11T15:57:43.193Z,4.23
2018-07-11T16:00:14.692Z,4.23
2018-07-11T16:02:47.234Z,5.53
2018-07-11T16:05:22.851Z,4.90
2018-07-11T16:07:54.768Z,4.00
2018-07-11T16:10:39.109Z,4.07
2018-07-11T16:13:09.881Z,4.77
2018-07-11T16:15:40.740Z,4.30
2018-07-11T16:18:11.340Z,4.60
2018-07-11T16:20:42.014Z,4.73
2018-07-11T16:23:12.792Z,4.50
2018-07-11T16:25:44.614Z,3.80
2018-07-11T16:28:15.720Z,4.83
2018-07-11T16:30:46.684Z,3.47
2018-07-11T16:33:17.386Z,3.70
2018-07-11T16:35:48.307Z,4.03
2018-07-11T16:38:19.033Z,4.13
2018-07-11T16:40:49.520Z,3.63
2018-07-11T16:43:20.103Z,3.53
2018-07-11T16:45:50.894Z,3.50
2018-07-11T16:48:22.637Z,3.47
2018-07-11T16:50:53.147Z,4.00
2018-07-11T16:53:24.115Z,4.60
2018-07-11T16:55:54.878Z,3.57
2018-07-11T16:58:30.105Z,3.57
2018-07-11T17:01:01.777Z,4.17
2018-07-11T17:03:35.569Z,3.93
2018-07-11T17:06:06.923Z,3.90
2018-07-11T17:08:55.079Z,3.97
2018-07-11T17:11:28.273Z,4.20
2018-07-11T17:14:01.767Z,3.90
2018-07-11T17:16:37.621Z,5.00
2018-07-11T17:19:13.224Z,4.90
2018-07-11T17:21:48.522Z,4.60
2018-07-11T17:24:20.806Z,4.80
2018-07-11T17:26:56.708Z,4.07
2018-07-11T17:29:30.384Z,4.30
2018-07-11T17:32:06.924Z,4.57
2018-07-11T17:34:38.477Z,4.27
2018-07-11T17:37:10.514Z,4.40
2018-07-11T17:39:53.246Z,4.60
2018-07-11T17:42:26.605Z,4.97
2018-07-11T17:45:13.204Z,4.30
2018-07-11T17:50:01.181Z,4.73
2018-07-11T17:52:54.913Z,4.77
2018-07-11T17:55:35.817Z,4.57
2018-07-11T17:58:08.664Z,4.10
2018-07-11T18:01:02.584Z,4.97
2018-07-11T18:04:46.008Z,3.70
2018-07-11T18:07:28.805Z,4.50
2018-07-11T18:10:08.711Z,4.50
2018-07-11T18:12:58.820Z,4.50
2018-07-11T18:15:44.339Z,4.33
2018-07-11T18:18:35.071Z,4.10
2018-07-11T18:23:19.398Z,4.23
2018-07-11T18:27:11.812Z,4.50
2018-07-11T18:30:06.921Z,4.17
2018-07-11T18:32:50.007Z,4.40
2018-07-11T18:35:35.162Z,4.63
2018-07-11T18:38:22.531Z,4.00
2018-07-11T18:41:17.042Z,4.20
2018-07-11T18:45:12.172Z,4.00
2018-07-11T18:48:56.695Z,4.33
2018-07-11T18:51:44.197Z,4.90
2018-07-11T18:54:38.216Z,3.80
2018-07-11T18:57:35.456Z,3.23
2018-07-11T19:00:18.023Z,4.60
2018-07-11T19:04:06.211Z,3.47
2018-07-11T19:06:50.818Z,3.13
2018-07-11T19:09:40.924Z,4.07
2018-07-11T19:12:33.880Z,3.70
2018-07-11T19:15:14.587Z,3.20
2018-07-11T19:18:24.090Z,3.33
2018-07-11T19:21:10.506Z,3.70
2018-07-11T19:24:56.262Z,4.10
2018-07-11T19:27:33.600Z,3.40
2018-07-11T19:30:12.965Z,3.57
2018-07-11T19:33:08.026Z,3.73
2018-07-11T19:36:49.328Z,3.50
2018-07-11T19:40:36.311Z,4.27
2018-07-11T19:45:26.240Z,3.70
2018-07-11T19:50:11.817Z,4.10
2018-07-11T19:55:00.814Z,4.10
2018-07-11T19:57:31.582Z,3.70
2018-07-11T20:00:02.340Z,4.90
2018-07-11T20:02:33.872Z,3.67
2018-07-11T20:05:04.621Z,4.00
2018-07-11T20:07:35.189Z,4.50
2018-07-11T20:10:05.929Z,4.13
2018-07-11T20:12:36.187Z,5.10
2018-07-11T20:15:06.825Z,5.33
2018-07-11T20:17:37.556Z,5.00
2018-07-11T20:20:08.609Z,4.93
2018-07-11T20:22:39.233Z,4.00
2018-07-11T20:25:09.810Z,4.80
2018-07-11T20:27:40.101Z,9.93
2018-07-11T20:30:10.521Z,5.70
2018-07-11T20:32:41.241Z,5.83
2018-07-11T20:35:11.993Z,5.10
2018-07-11T20:37:42.786Z,4.83
2018-07-11T20:40:13.754Z,5.50
2018-07-11T20:42:44.500Z,5.60
2018-07-11T20:45:15.116Z,6.10
2018-07-11T20:47:46.077Z,6.40
2018-07-11T20:50:17.541Z,6.20
2018-07-11T20:52:48.208Z,6.00
2018-07-11T20:55:19.090Z,6.60
2018-07-11T20:57:50.628Z,5.90
2018-07-11T21:01:39.820Z,5.07
2018-07-11T21:06:37.315Z,5.70
2018-07-11T21:10:21.034Z,6.43
2018-07-11T21:13:09.495Z,5.00
2018-07-11T21:17:02.689Z,5.20
2018-07-11T21:19:33.469Z,5.60
2018-07-11T21:22:04.085Z,6.00
2018-07-11T21:24:34.901Z,6.60
2018-07-11T21:27:05.782Z,4.80
2018-07-11T21:29:36.557Z,6.50
2018-07-11T21:32:06.975Z,5.03
2018-07-11T21:34:37.860Z,6.27
2018-07-11T21:37:08.376Z,5.40
2018-07-11T21:39:38.779Z,5.70
2018-07-11T21:42:08.983Z,5.53
2018-07-11T21:44:39.482Z,6.50
2018-07-11T21:47:10.222Z,5.90
2018-07-11T21:49:41.471Z,6.57
2018-07-11T21:52:12.079Z,5.30
2018-07-11T21:54:42.993Z,7.23
2018-07-11T21:57:14.300Z,6.20
2018-07-11T21:59:45.276Z,7.80
2018-07-11T22:02:17.151Z,6.70
2018-07-11T22:04:47.362Z,7.87
2018-07-11T22:07:18.061Z,9.27
2018-07-11T22:09:48.956Z,6.90
2018-07-11T22:12:19.133Z,9.10
2018-07-11T22:14:49.618Z,8.87
2018-07-11T22:17:34.677Z,7.93
2018-07-11T22:20:03.629Z,7.83
2018-07-11T22:22:31.982Z,8.07
2018-07-11T22:25:00.405Z,8.80
2018-07-11T22:27:28.847Z,8.80
2018-07-11T22:29:57.274Z,9.03
2018-07-11T22:32:25.728Z,8.70
2018-07-11T22:34:54.167Z,7.93
2018-07-11T22:37:22.623Z,9.60
2018-07-11T22:39:51.183Z,8.03
2018-07-11T22:42:19.623Z,9.17
2018-07-11T22:44:48.036Z,7.57
2018-07-11T22:47:16.474Z,8.13
2018-07-11T22:49:50.244Z,7.23
2018-07-11T22:52:18.646Z,7.50
2018-07-11T22:54:47.114Z,7.93
2018-07-11T22:57:15.570Z,7.50
2018-07-11T22:59:44.009Z,6.57
2018-07-11T23:02:12.587Z,7.87
2018-07-11T23:04:41.282Z,6.30
2018-07-11T23:07:09.738Z,7.03
2018-07-11T23:09:38.187Z,6.00
2018-07-11T23:12:06.949Z,6.60
2018-07-11T23:14:35.469Z,8.03
2018-07-11T23:17:04.292Z,7.30
2018-07-11T23:19:32.724Z,6.27
2018-07-11T23:22:01.184Z,5.90
2018-07-11T23:24:29.619Z,7.10
2018-07-11T23:26:58.054Z,6.07
2018-07-11T23:29:26.524Z,6.00
2018-07-11T23:31:54.984Z,5.83
2018-07-11T23:34:23.425Z,5.63
2018-07-11T23:36:52.120Z,6.07
2018-07-11T23:39:20.477Z,5.13
2018-07-11T23:41:48.914Z,5.57
2018-07-11T23:44:17.602Z,6.10
2018-07-11T23:46:46.176Z,6.10
2018-07-11T23:49:14.674Z,6.23
2018-07-11T23:51:43.092Z,6.30
2018-07-11T23:54:11.559Z,6.70
2018-07-11T23:56:39.989Z,6.10
2018-07-11T23:59:08.427Z,6.73
